Grand Junction, CO (81501)

6:34 AM MST on February 06, 2016 (GMT -0700)
Chipeta Ave south of Washington Park | | Change Station
CLOSE
Current Station
Personal Weather Station
Location: Grand Junction, CO
Elevation: 4603 ft
Nearby Weather Stations

Elev 4603 ft 39.07 °N, 108.56 °W | Updated 9 seconds ago

Clear
Clear
9.3 °F
Feels Like 9 °F
N
0.0
Wind Variable Wind from WNW
Gusts 1.0 mph

Today
High -- | Low -- °F
--% Chance of Precip.
Yesterday
High -- | Low -- °F
Precip. -- in
Pressure 30.83 in
Visibility 7.0 miles
Clouds Clear
Windchill 9 °F
Dew Point 7 °F
Humidity 89%
Rainfall 0.00 in
Snow Depth Not available.
7:16 AM 5:40 PM
Waning Crescent, 5% visible
METAR KGJT 061253Z AUTO 00000KT 7SM CLR M17/M18 A3059 RMK AO2 SLP440 T11671178
Pressure 30.83 in
Visibility 7.0 miles
Clouds Clear
Windchill 9 °F
Dew Point 7 °F
Humidity 89%
Rainfall 0.00 in
Snow Depth Not available.
7:16 AM 5:40 PM
Waning Crescent, 5% visible
METAR KGJT 061253Z AUTO 00000KT 7SM CLR M17/M18 A3059 RMK AO2 SLP440 T11671178

10-Day Weather Forecast

Almanac

Astronomy

Feb. 06, 2016 Rise Set
Actual Time
Civil Twilight
Nautical Twilight
Astronomical Twilight
Moon
Length of Visible Light
Length of Day
Tomorrow will be .
, % of the Moon is Illuminated

Today's Extremes

State Highs State Lows

Community

WunderPhotos

Upload Photos

1,890,971 photos uploaded!

WunderBlog® & News

Nearby

Air Quality

  Air Quality AQ Index Pollutant
Not available.

Snow Depth

Station Depth Elevation

Earthquake Activity

City Distance Mag. Time & Date
Minimum magnitude displayed is 2.5.

Coastal Water Temperatures

Place Temperature

Stations

Nearby Weather Stations

Station Location Temp. Windchill Dew Point Humidity Wind Precip. Elev Updated Type
                   

Watches & Warnings

There are currently no watches in effect.